sensor_id;sensor_type;location;lat;lon;timestamp;P1;durP1;ratioP1;P2;durP2;ratioP2
59950;SDS011;45812;53.540;9.774;2022-07-10T00:01:54;3.80;;;1.20;;
59950;SDS011;45812;53.540;9.774;2022-07-10T00:04:19;4.85;;;1.25;;
59950;SDS011;45812;53.540;9.774;2022-07-10T00:06:45;3.28;;;0.68;;
59950;SDS011;45812;53.540;9.774;2022-07-10T00:09:12;3.30;;;1.65;;
59950;SDS011;45812;53.540;9.774;2022-07-10T00:11:38;2.85;;;0.60;;
59950;SDS011;45812;53.540;9.774;2022-07-10T00:14:04;8.48;;;1.20;;
59950;SDS011;45812;53.540;9.774;2022-07-10T00:16:29;5.88;;;0.85;;
59950;SDS011;45812;53.540;9.774;2022-07-10T00:18:54;13.02;;;1.17;;
59950;SDS011;45812;53.540;9.774;2022-07-10T00:21:20;8.43;;;1.92;;
59950;SDS011;45812;53.540;9.774;2022-07-10T00:23:45;7.07;;;1.77;;
59950;SDS011;45812;53.540;9.774;2022-07-10T00:26:10;4.63;;;0.95;;
59950;SDS011;45812;53.540;9.774;2022-07-10T00:28:36;5.05;;;1.10;;
59950;SDS011;45812;53.540;9.774;2022-07-10T00:31:01;14.10;;;1.50;;
59950;SDS011;45812;53.540;9.774;2022-07-10T00:33:27;2.90;;;0.73;;
59950;SDS011;45812;53.540;9.774;2022-07-10T00:35:53;1.27;;;0.77;;
59950;SDS011;45812;53.540;9.774;2022-07-10T00:38:18;3.42;;;0.70;;
59950;SDS011;45812;53.540;9.774;2022-07-10T00:40:43;1.75;;;0.43;;
59950;SDS011;45812;53.540;9.774;2022-07-10T00:43:09;6.90;;;1.50;;
59950;SDS011;45812;53.540;9.774;2022-07-10T00:45:34;2.80;;;0.50;;
59950;SDS011;45812;53.540;9.774;2022-07-10T00:48:00;3.97;;;0.68;;
59950;SDS011;45812;53.540;9.774;2022-07-10T00:50:25;9.68;;;1.13;;
59950;SDS011;45812;53.540;9.774;2022-07-10T00:52:51;4.75;;;1.02;;
59950;SDS011;45812;53.540;9.774;2022-07-10T00:55:16;5.20;;;1.48;;
59950;SDS011;45812;53.540;9.774;2022-07-10T00:57:42;4.00;;;0.85;;
59950;SDS011;45812;53.540;9.774;2022-07-10T01:00:08;3.25;;;1.15;;
59950;SDS011;45812;53.540;9.774;2022-07-10T01:02:36;8.50;;;1.20;;
59950;SDS011;45812;53.540;9.774;2022-07-10T01:05:06;1.55;;;0.90;;
59950;SDS011;45812;53.540;9.774;2022-07-10T01:07:31;6.70;;;0.98;;
59950;SDS011;45812;53.540;9.774;2022-07-10T01:09:56;4.07;;;1.20;;
59950;SDS011;45812;53.540;9.774;2022-07-10T01:12:24;8.55;;;1.38;;
59950;SDS011;45812;53.540;9.774;2022-07-10T01:14:50;5.20;;;1.17;;
59950;SDS011;45812;53.540;9.774;2022-07-10T01:17:15;5.22;;;1.27;;
59950;SDS011;45812;53.540;9.774;2022-07-10T01:19:41;4.22;;;1.10;;
59950;SDS011;45812;53.540;9.774;2022-07-10T01:22:07;2.28;;;1.00;;
59950;SDS011;45812;53.540;9.774;2022-07-10T01:24:32;3.58;;;0.93;;
59950;SDS011;45812;53.540;9.774;2022-07-10T01:26:57;8.45;;;1.98;;
59950;SDS011;45812;53.540;9.774;2022-07-10T01:29:23;3.03;;;1.30;;
59950;SDS011;45812;53.540;9.774;2022-07-10T01:31:48;6.00;;;1.20;;
59950;SDS011;45812;53.540;9.774;2022-07-10T01:34:14;5.20;;;1.17;;
59950;SDS011;45812;53.540;9.774;2022-07-10T01:36:39;4.13;;;1.25;;
59950;SDS011;45812;53.540;9.774;2022-07-10T01:39:06;5.75;;;1.45;;
59950;SDS011;45812;53.540;9.774;2022-07-10T01:41:32;6.35;;;1.05;;
59950;SDS011;45812;53.540;9.774;2022-07-10T01:43:57;6.22;;;1.23;;
59950;SDS011;45812;53.540;9.774;2022-07-10T01:46:23;4.30;;;1.38;;
59950;SDS011;45812;53.540;9.774;2022-07-10T01:48:49;6.10;;;2.15;;
59950;SDS011;45812;53.540;9.774;2022-07-10T01:51:14;7.43;;;1.23;;
59950;SDS011;45812;53.540;9.774;2022-07-10T01:53:40;6.43;;;1.27;;
59950;SDS011;45812;53.540;9.774;2022-07-10T01:56:06;7.38;;;1.50;;
59950;SDS011;45812;53.540;9.774;2022-07-10T01:58:33;6.88;;;1.50;;
59950;SDS011;45812;53.540;9.774;2022-07-10T02:00:59;4.65;;;1.35;;
59950;SDS011;45812;53.540;9.774;2022-07-10T02:03:24;4.43;;;1.35;;
59950;SDS011;45812;53.540;9.774;2022-07-10T02:06:08;6.72;;;1.67;;
59950;SDS011;45812;53.540;9.774;2022-07-10T02:08:34;13.65;;;2.22;;
59950;SDS011;45812;53.540;9.774;2022-07-10T02:10:59;4.72;;;2.15;;
59950;SDS011;45812;53.540;9.774;2022-07-10T02:13:24;7.68;;;1.63;;
59950;SDS011;45812;53.540;9.774;2022-07-10T02:15:52;4.57;;;0.90;;
59950;SDS011;45812;53.540;9.774;2022-07-10T02:18:21;9.77;;;1.52;;
59950;SDS011;45812;53.540;9.774;2022-07-10T02:20:46;5.03;;;1.23;;
59950;SDS011;45812;53.540;9.774;2022-07-10T02:23:12;5.90;;;1.13;;
59950;SDS011;45812;53.540;9.774;2022-07-10T02:25:37;2.60;;;1.50;;
59950;SDS011;45812;53.540;9.774;2022-07-10T02:28:03;4.40;;;1.17;;
59950;SDS011;45812;53.540;9.774;2022-07-10T02:30:29;2.95;;;1.27;;
59950;SDS011;45812;53.540;9.774;2022-07-10T02:32:54;10.10;;;1.60;;
59950;SDS011;45812;53.540;9.774;2022-07-10T02:35:20;4.03;;;1.50;;
59950;SDS011;45812;53.540;9.774;2022-07-10T02:37:45;3.42;;;1.20;;
59950;SDS011;45812;53.540;9.774;2022-07-10T02:40:10;5.68;;;1.48;;
59950;SDS011;45812;53.540;9.774;2022-07-10T02:42:36;12.88;;;2.42;;
59950;SDS011;45812;53.540;9.774;2022-07-10T02:45:01;5.22;;;1.50;;
59950;SDS011;45812;53.540;9.774;2022-07-10T02:47:27;6.05;;;1.98;;
59950;SDS011;45812;53.540;9.774;2022-07-10T02:49:52;5.70;;;1.58;;
59950;SDS011;45812;53.540;9.774;2022-07-10T02:52:17;8.77;;;1.67;;
59950;SDS011;45812;53.540;9.774;2022-07-10T02:54:43;7.43;;;1.55;;
59950;SDS011;45812;53.540;9.774;2022-07-10T02:57:08;3.60;;;1.65;;
59950;SDS011;45812;53.540;9.774;2022-07-10T02:59:33;7.95;;;1.80;;
59950;SDS011;45812;53.540;9.774;2022-07-10T03:01:59;9.32;;;2.10;;
59950;SDS011;45812;53.540;9.774;2022-07-10T03:04:25;13.10;;;2.13;;
59950;SDS011;45812;53.540;9.774;2022-07-10T03:06:51;7.75;;;1.75;;
59950;SDS011;45812;53.540;9.774;2022-07-10T03:09:16;7.45;;;1.80;;
59950;SDS011;45812;53.540;9.774;2022-07-10T03:11:41;9.25;;;3.05;;
59950;SDS011;45812;53.540;9.774;2022-07-10T03:14:07;6.45;;;1.83;;
59950;SDS011;45812;53.540;9.774;2022-07-10T03:16:32;7.18;;;1.98;;
59950;SDS011;45812;53.540;9.774;2022-07-10T03:18:57;8.50;;;2.38;;
59950;SDS011;45812;53.540;9.774;2022-07-10T03:21:22;7.13;;;1.63;;
59950;SDS011;45812;53.540;9.774;2022-07-10T03:23:48;7.25;;;1.60;;
59950;SDS011;45812;53.540;9.774;2022-07-10T03:26:13;4.10;;;1.65;;
59950;SDS011;45812;53.540;9.774;2022-07-10T03:28:39;5.78;;;1.85;;
59950;SDS011;45812;53.540;9.774;2022-07-10T03:31:04;7.40;;;2.00;;
59950;SDS011;45812;53.540;9.774;2022-07-10T03:33:29;6.00;;;2.15;;
59950;SDS011;45812;53.540;9.774;2022-07-10T03:35:55;8.15;;;2.10;;
59950;SDS011;45812;53.540;9.774;2022-07-10T03:38:20;4.95;;;2.05;;
59950;SDS011;45812;53.540;9.774;2022-07-10T03:40:46;9.10;;;2.92;;
59950;SDS011;45812;53.540;9.774;2022-07-10T03:43:13;8.75;;;2.20;;
59950;SDS011;45812;53.540;9.774;2022-07-10T03:45:39;4.72;;;1.85;;
59950;SDS011;45812;53.540;9.774;2022-07-10T03:48:04;2.78;;;1.80;;
59950;SDS011;45812;53.540;9.774;2022-07-10T03:50:30;10.55;;;1.63;;
59950;SDS011;45812;53.540;9.774;2022-07-10T03:52:55;11.63;;;2.53;;
59950;SDS011;45812;53.540;9.774;2022-07-10T03:55:20;10.55;;;2.20;;
59950;SDS011;45812;53.540;9.774;2022-07-10T03:57:45;11.68;;;2.05;;
59950;SDS011;45812;53.540;9.774;2022-07-10T04:00:27;9.05;;;1.83;;
59950;SDS011;45812;53.540;9.774;2022-07-10T04:02:57;11.93;;;1.73;;
59950;SDS011;45812;53.540;9.774;2022-07-10T04:05:23;11.95;;;2.50;;
59950;SDS011;45812;53.540;9.774;2022-07-10T04:07:49;12.23;;;2.25;;
59950;SDS011;45812;53.540;9.774;2022-07-10T04:10:15;8.43;;;2.13;;
59950;SDS011;45812;53.540;9.774;2022-07-10T04:12:41;10.15;;;2.17;;
59950;SDS011;45812;53.540;9.774;2022-07-10T04:15:06;10.57;;;2.17;;
59950;SDS011;45812;53.540;9.774;2022-07-10T04:17:32;12.90;;;2.65;;
59950;SDS011;45812;53.540;9.774;2022-07-10T04:19:58;14.05;;;2.65;;
59950;SDS011;45812;53.540;9.774;2022-07-10T04:22:24;9.00;;;2.40;;
59950;SDS011;45812;53.540;9.774;2022-07-10T04:24:50;8.40;;;2.67;;
59950;SDS011;45812;53.540;9.774;2022-07-10T04:27:16;11.93;;;2.47;;
59950;SDS011;45812;53.540;9.774;2022-07-10T04:29:42;7.10;;;2.88;;
59950;SDS011;45812;53.540;9.774;2022-07-10T04:32:07;8.98;;;2.17;;
59950;SDS011;45812;53.540;9.774;2022-07-10T04:34:33;13.52;;;3.03;;
59950;SDS011;45812;53.540;9.774;2022-07-10T04:36:58;12.10;;;2.70;;
59950;SDS011;45812;53.540;9.774;2022-07-10T04:39:23;10.10;;;3.22;;
59950;SDS011;45812;53.540;9.774;2022-07-10T04:41:49;9.65;;;2.13;;
59950;SDS011;45812;53.540;9.774;2022-07-10T04:44:14;8.40;;;2.08;;
59950;SDS011;45812;53.540;9.774;2022-07-10T04:46:40;8.93;;;2.30;;
59950;SDS011;45812;53.540;9.774;2022-07-10T04:49:05;11.30;;;2.67;;
59950;SDS011;45812;53.540;9.774;2022-07-10T04:51:30;12.45;;;2.75;;
59950;SDS011;45812;53.540;9.774;2022-07-10T04:53:56;13.40;;;2.60;;
59950;SDS011;45812;53.540;9.774;2022-07-10T04:56:21;8.25;;;2.42;;
59950;SDS011;45812;53.540;9.774;2022-07-10T04:58:46;9.57;;;2.38;;
59950;SDS011;45812;53.540;9.774;2022-07-10T05:01:13;10.32;;;2.30;;
59950;SDS011;45812;53.540;9.774;2022-07-10T05:03:38;9.88;;;2.80;;
59950;SDS011;45812;53.540;9.774;2022-07-10T05:06:03;13.63;;;3.95;;
59950;SDS011;45812;53.540;9.774;2022-07-10T05:08:29;11.50;;;2.78;;
59950;SDS011;45812;53.540;9.774;2022-07-10T05:10:54;13.15;;;3.17;;
59950;SDS011;45812;53.540;9.774;2022-07-10T05:13:19;7.25;;;2.20;;
59950;SDS011;45812;53.540;9.774;2022-07-10T05:15:45;14.75;;;2.53;;
59950;SDS011;45812;53.540;9.774;2022-07-10T05:18:12;16.85;;;3.08;;
59950;SDS011;45812;53.540;9.774;2022-07-10T05:20:37;10.23;;;2.70;;
59950;SDS011;45812;53.540;9.774;2022-07-10T05:23:06;16.85;;;3.65;;
59950;SDS011;45812;53.540;9.774;2022-07-10T05:25:32;12.50;;;2.40;;
59950;SDS011;45812;53.540;9.774;2022-07-10T05:27:57;10.90;;;2.58;;
59950;SDS011;45812;53.540;9.774;2022-07-10T05:30:23;17.10;;;3.08;;
59950;SDS011;45812;53.540;9.774;2022-07-10T05:32:48;11.23;;;2.90;;
59950;SDS011;45812;53.540;9.774;2022-07-10T05:35:14;11.65;;;2.47;;
59950;SDS011;45812;53.540;9.774;2022-07-10T05:37:39;14.05;;;2.72;;
59950;SDS011;45812;53.540;9.774;2022-07-10T05:40:05;13.32;;;2.58;;
59950;SDS011;45812;53.540;9.774;2022-07-10T05:42:30;13.50;;;3.25;;
59950;SDS011;45812;53.540;9.774;2022-07-10T05:44:56;11.05;;;3.08;;
59950;SDS011;45812;53.540;9.774;2022-07-10T05:47:21;14.27;;;3.33;;
59950;SDS011;45812;53.540;9.774;2022-07-10T05:49:46;16.38;;;2.80;;
59950;SDS011;45812;53.540;9.774;2022-07-10T05:52:11;10.43;;;2.97;;
59950;SDS011;45812;53.540;9.774;2022-07-10T05:54:37;11.18;;;2.70;;
59950;SDS011;45812;53.540;9.774;2022-07-10T05:57:03;11.57;;;2.80;;
59950;SDS011;45812;53.540;9.774;2022-07-10T05:59:29;13.18;;;3.05;;
59950;SDS011;45812;53.540;9.774;2022-07-10T06:01:57;14.05;;;2.97;;
59950;SDS011;45812;53.540;9.774;2022-07-10T06:04:23;17.67;;;4.30;;
59950;SDS011;45812;53.540;9.774;2022-07-10T06:06:48;10.50;;;2.75;;
59950;SDS011;45812;53.540;9.774;2022-07-10T06:09:13;13.48;;;2.88;;
59950;SDS011;45812;53.540;9.774;2022-07-10T06:11:38;9.50;;;3.00;;
59950;SDS011;45812;53.540;9.774;2022-07-10T06:14:06;10.10;;;2.40;;
59950;SDS011;45812;53.540;9.774;2022-07-10T06:16:32;11.52;;;3.03;;
59950;SDS011;45812;53.540;9.774;2022-07-10T06:18:57;11.27;;;2.45;;
59950;SDS011;45812;53.540;9.774;2022-07-10T06:21:22;6.43;;;2.08;;
59950;SDS011;45812;53.540;9.774;2022-07-10T06:23:48;15.45;;;3.00;;
59950;SDS011;45812;53.540;9.774;2022-07-10T06:26:13;15.43;;;2.75;;
59950;SDS011;45812;53.540;9.774;2022-07-10T06:28:39;8.25;;;2.53;;
59950;SDS011;45812;53.540;9.774;2022-07-10T06:31:04;14.57;;;2.28;;
59950;SDS011;45812;53.540;9.774;2022-07-10T06:33:30;10.27;;;2.33;;
59950;SDS011;45812;53.540;9.774;2022-07-10T06:35:57;13.13;;;3.03;;
59950;SDS011;45812;53.540;9.774;2022-07-10T06:38:22;6.57;;;2.13;;
59950;SDS011;45812;53.540;9.774;2022-07-10T06:40:47;10.98;;;2.15;;
59950;SDS011;45812;53.540;9.774;2022-07-10T06:43:12;9.35;;;2.30;;
59950;SDS011;45812;53.540;9.774;2022-07-10T06:45:38;5.82;;;1.67;;
59950;SDS011;45812;53.540;9.774;2022-07-10T06:48:04;10.57;;;2.13;;
59950;SDS011;45812;53.540;9.774;2022-07-10T06:50:30;7.35;;;2.70;;
59950;SDS011;45812;53.540;9.774;2022-07-10T06:52:56;10.40;;;2.83;;
59950;SDS011;45812;53.540;9.774;2022-07-10T06:55:22;11.55;;;3.17;;
59950;SDS011;45812;53.540;9.774;2022-07-10T06:57:48;9.15;;;2.53;;
59950;SDS011;45812;53.540;9.774;2022-07-10T07:00:14;10.20;;;2.53;;
59950;SDS011;45812;53.540;9.774;2022-07-10T07:02:40;9.23;;;1.88;;
59950;SDS011;45812;53.540;9.774;2022-07-10T07:05:06;12.98;;;2.80;;
59950;SDS011;45812;53.540;9.774;2022-07-10T07:07:32;12.23;;;2.40;;
59950;SDS011;45812;53.540;9.774;2022-07-10T07:09:58;13.05;;;2.38;;
59950;SDS011;45812;53.540;9.774;2022-07-10T07:12:23;11.00;;;2.35;;
59950;SDS011;45812;53.540;9.774;2022-07-10T07:14:48;12.63;;;2.80;;
59950;SDS011;45812;53.540;9.774;2022-07-10T07:17:14;23.50;;;2.33;;
59950;SDS011;45812;53.540;9.774;2022-07-10T07:19:46;10.98;;;2.42;;
59950;SDS011;45812;53.540;9.774;2022-07-10T07:22:30;14.35;;;2.22;;
59950;SDS011;45812;53.540;9.774;2022-07-10T07:25:14;9.18;;;1.55;;
59950;SDS011;45812;53.540;9.774;2022-07-10T07:27:39;10.10;;;2.40;;
59950;SDS011;45812;53.540;9.774;2022-07-10T07:30:05;10.20;;;1.95;;
59950;SDS011;45812;53.540;9.774;2022-07-10T07:32:32;5.90;;;1.80;;
59950;SDS011;45812;53.540;9.774;2022-07-10T07:34:58;15.00;;;2.78;;
59950;SDS011;45812;53.540;9.774;2022-07-10T07:37:40;7.32;;;2.03;;
59950;SDS011;45812;53.540;9.774;2022-07-10T07:40:11;15.40;;;3.35;;
59950;SDS011;45812;53.540;9.774;2022-07-10T07:42:38;12.85;;;2.25;;
59950;SDS011;45812;53.540;9.774;2022-07-10T07:45:04;6.78;;;1.75;;
59950;SDS011;45812;53.540;9.774;2022-07-10T07:47:30;11.65;;;3.38;;
59950;SDS011;45812;53.540;9.774;2022-07-10T07:50:07;10.90;;;2.85;;
59950;SDS011;45812;53.540;9.774;2022-07-10T07:52:32;11.55;;;2.25;;
59950;SDS011;45812;53.540;9.774;2022-07-10T07:55:00;12.70;;;1.83;;
59950;SDS011;45812;53.540;9.774;2022-07-10T07:57:25;11.30;;;2.00;;
59950;SDS011;45812;53.540;9.774;2022-07-10T07:59:51;13.05;;;2.05;;
59950;SDS011;45812;53.540;9.774;2022-07-10T08:02:16;9.07;;;1.60;;
59950;SDS011;45812;53.540;9.774;2022-07-10T08:04:41;9.85;;;3.10;;
59950;SDS011;45812;53.540;9.774;2022-07-10T08:07:06;10.98;;;1.70;;
59950;SDS011;45812;53.540;9.774;2022-07-10T08:09:32;11.05;;;1.92;;
59950;SDS011;45812;53.540;9.774;2022-07-10T08:11:57;10.00;;;2.67;;
59950;SDS011;45812;53.540;9.774;2022-07-10T08:14:23;9.23;;;2.33;;
59950;SDS011;45812;53.540;9.774;2022-07-10T08:16:48;10.45;;;1.88;;
59950;SDS011;45812;53.540;9.774;2022-07-10T08:19:15;7.13;;;1.73;;
59950;SDS011;45812;53.540;9.774;2022-07-10T08:21:41;17.00;;;2.58;;
59950;SDS011;45812;53.540;9.774;2022-07-10T08:24:06;6.15;;;1.95;;
59950;SDS011;45812;53.540;9.774;2022-07-10T08:26:31;12.63;;;2.85;;
59950;SDS011;45812;53.540;9.774;2022-07-10T08:28:57;8.38;;;1.73;;
59950;SDS011;45812;53.540;9.774;2022-07-10T08:31:22;17.27;;;2.58;;
59950;SDS011;45812;53.540;9.774;2022-07-10T08:33:48;10.07;;;2.25;;
59950;SDS011;45812;53.540;9.774;2022-07-10T08:36:14;7.97;;;2.03;;
59950;SDS011;45812;53.540;9.774;2022-07-10T08:38:39;10.82;;;2.13;;
59950;SDS011;45812;53.540;9.774;2022-07-10T08:41:05;9.10;;;2.08;;
59950;SDS011;45812;53.540;9.774;2022-07-10T08:43:31;10.63;;;1.60;;
59950;SDS011;45812;53.540;9.774;2022-07-10T08:45:56;6.18;;;1.20;;
59950;SDS011;45812;53.540;9.774;2022-07-10T08:48:23;10.32;;;1.38;;
59950;SDS011;45812;53.540;9.774;2022-07-10T08:50:53;3.72;;;1.73;;
59950;SDS011;45812;53.540;9.774;2022-07-10T08:53:29;9.68;;;2.08;;
59950;SDS011;45812;53.540;9.774;2022-07-10T08:55:56;10.57;;;1.88;;
59950;SDS011;45812;53.540;9.774;2022-07-10T08:58:22;13.40;;;3.28;;
59950;SDS011;45812;53.540;9.774;2022-07-10T09:00:49;6.25;;;1.50;;
59950;SDS011;45812;53.540;9.774;2022-07-10T09:03:14;10.63;;;2.15;;
59950;SDS011;45812;53.540;9.774;2022-07-10T09:05:39;7.93;;;1.88;;
59950;SDS011;45812;53.540;9.774;2022-07-10T09:08:20;5.88;;;1.60;;
59950;SDS011;45812;53.540;9.774;2022-07-10T09:10:47;12.60;;;1.73;;
59950;SDS011;45812;53.540;9.774;2022-07-10T09:13:12;13.00;;;1.98;;
59950;SDS011;45812;53.540;9.774;2022-07-10T09:15:38;6.07;;;1.85;;
59950;SDS011;45812;53.540;9.774;2022-07-10T09:18:03;12.65;;;1.92;;
59950;SDS011;45812;53.540;9.774;2022-07-10T09:20:36;10.55;;;1.85;;
59950;SDS011;45812;53.540;9.774;2022-07-10T09:25:45;10.25;;;1.83;;
59950;SDS011;45812;53.540;9.774;2022-07-10T09:28:12;13.02;;;2.10;;
59950;SDS011;45812;53.540;9.774;2022-07-10T09:30:40;10.45;;;1.63;;
59950;SDS011;45812;53.540;9.774;2022-07-10T09:33:22;4.72;;;1.45;;
59950;SDS011;45812;53.540;9.774;2022-07-10T09:41:29;8.93;;;2.53;;
59950;SDS011;45812;53.540;9.774;2022-07-10T09:43:56;8.45;;;1.77;;
59950;SDS011;45812;53.540;9.774;2022-07-10T09:46:39;7.00;;;1.15;;
59950;SDS011;45812;53.540;9.774;2022-07-10T09:51:35;6.85;;;2.03;;
59950;SDS011;45812;53.540;9.774;2022-07-10T09:54:03;11.32;;;2.33;;
59950;SDS011;45812;53.540;9.774;2022-07-10T09:56:31;7.45;;;1.73;;
59950;SDS011;45812;53.540;9.774;2022-07-10T09:59:02;8.07;;;1.58;;
59950;SDS011;45812;53.540;9.774;2022-07-10T10:01:31;13.65;;;1.90;;
59950;SDS011;45812;53.540;9.774;2022-07-10T10:03:58;7.07;;;2.17;;
59950;SDS011;45812;53.540;9.774;2022-07-10T10:06:26;6.50;;;1.77;;
59950;SDS011;45812;53.540;9.774;2022-07-10T10:09:11;4.35;;;1.50;;
59950;SDS011;45812;53.540;9.774;2022-07-10T10:11:43;5.10;;;1.60;;
59950;SDS011;45812;53.540;9.774;2022-07-10T10:14:10;9.05;;;2.45;;
59950;SDS011;45812;53.540;9.774;2022-07-10T10:16:36;8.68;;;1.60;;
59950;SDS011;45812;53.540;9.774;2022-07-10T10:19:02;5.78;;;1.60;;
59950;SDS011;45812;53.540;9.774;2022-07-10T10:21:46;8.32;;;1.70;;
59950;SDS011;45812;53.540;9.774;2022-07-10T10:24:13;9.95;;;1.90;;
59950;SDS011;45812;53.540;9.774;2022-07-10T10:26:39;11.25;;;1.92;;
59950;SDS011;45812;53.540;9.774;2022-07-10T10:29:06;5.55;;;1.52;;
59950;SDS011;45812;53.540;9.774;2022-07-10T10:31:31;8.40;;;1.58;;
59950;SDS011;45812;53.540;9.774;2022-07-10T10:33:58;8.77;;;1.80;;
59950;SDS011;45812;53.540;9.774;2022-07-10T10:36:46;5.40;;;1.23;;
59950;SDS011;45812;53.540;9.774;2022-07-10T10:39:15;9.18;;;2.15;;
59950;SDS011;45812;53.540;9.774;2022-07-10T10:41:44;4.95;;;1.42;;
59950;SDS011;45812;53.540;9.774;2022-07-10T10:44:20;6.65;;;1.60;;
59950;SDS011;45812;53.540;9.774;2022-07-10T10:49:15;7.90;;;1.63;;
59950;SDS011;45812;53.540;9.774;2022-07-10T10:54:24;5.85;;;1.63;;
59950;SDS011;45812;53.540;9.774;2022-07-10T10:59:49;3.65;;;1.85;;
59950;SDS011;45812;53.540;9.774;2022-07-10T11:04:51;7.40;;;2.63;;
59950;SDS011;45812;53.540;9.774;2022-07-10T11:07:53;6.97;;;2.15;;
59950;SDS011;45812;53.540;9.774;2022-07-10T11:10:26;9.10;;;2.22;;
59950;SDS011;45812;53.540;9.774;2022-07-10T11:12:57;7.88;;;1.50;;
59950;SDS011;45812;53.540;9.774;2022-07-10T11:15:27;5.53;;;2.05;;
59950;SDS011;45812;53.540;9.774;2022-07-10T11:17:58;7.00;;;2.17;;
59950;SDS011;45812;53.540;9.774;2022-07-10T11:20:24;7.25;;;1.80;;
59950;SDS011;45812;53.540;9.774;2022-07-10T11:23:12;8.68;;;1.92;;
59950;SDS011;45812;53.540;9.774;2022-07-10T11:28:49;6.88;;;1.67;;
59950;SDS011;45812;53.540;9.774;2022-07-10T11:31:25;7.45;;;1.38;;
59950;SDS011;45812;53.540;9.774;2022-07-10T11:33:52;4.38;;;1.60;;
59950;SDS011;45812;53.540;9.774;2022-07-10T11:36:22;6.50;;;1.63;;
59950;SDS011;45812;53.540;9.774;2022-07-10T11:39:01;3.95;;;1.42;;
59950;SDS011;45812;53.540;9.774;2022-07-10T11:41:33;6.40;;;1.45;;
59950;SDS011;45812;53.540;9.774;2022-07-10T11:44:06;9.40;;;1.63;;
59950;SDS011;45812;53.540;9.774;2022-07-10T11:46:37;10.75;;;2.30;;
59950;SDS011;45812;53.540;9.774;2022-07-10T11:49:03;11.60;;;2.00;;
59950;SDS011;45812;53.540;9.774;2022-07-10T11:51:31;3.85;;;1.40;;
59950;SDS011;45812;53.540;9.774;2022-07-10T11:54:00;6.70;;;1.63;;
59950;SDS011;45812;53.540;9.774;2022-07-10T11:56:32;4.60;;;1.65;;
59950;SDS011;45812;53.540;9.774;2022-07-10T11:58:59;5.25;;;1.75;;
59950;SDS011;45812;53.540;9.774;2022-07-10T12:01:30;10.07;;;1.65;;
59950;SDS011;45812;53.540;9.774;2022-07-10T12:03:58;7.78;;;2.13;;
59950;SDS011;45812;53.540;9.774;2022-07-10T12:06:29;9.48;;;2.00;;
59950;SDS011;45812;53.540;9.774;2022-07-10T12:08:55;8.18;;;1.65;;
59950;SDS011;45812;53.540;9.774;2022-07-10T12:11:21;5.85;;;1.73;;
59950;SDS011;45812;53.540;9.774;2022-07-10T12:13:49;4.88;;;1.85;;
59950;SDS011;45812;53.540;9.774;2022-07-10T12:16:17;7.18;;;1.67;;
59950;SDS011;45812;53.540;9.774;2022-07-10T12:18:43;6.93;;;1.88;;
59950;SDS011;45812;53.540;9.774;2022-07-10T12:21:11;6.10;;;1.38;;
59950;SDS011;45812;53.540;9.774;2022-07-10T12:23:38;6.35;;;1.75;;
59950;SDS011;45812;53.540;9.774;2022-07-10T12:26:07;10.98;;;2.40;;
59950;SDS011;45812;53.540;9.774;2022-07-10T12:28:50;6.43;;;1.52;;
59950;SDS011;45812;53.540;9.774;2022-07-10T12:31:28;9.88;;;1.50;;
59950;SDS011;45812;53.540;9.774;2022-07-10T12:33:55;2.88;;;1.42;;
59950;SDS011;45812;53.540;9.774;2022-07-10T12:36:40;3.72;;;1.30;;
59950;SDS011;45812;53.540;9.774;2022-07-10T12:39:14;5.35;;;1.50;;
59950;SDS011;45812;53.540;9.774;2022-07-10T12:49:27;5.13;;;1.88;;
59950;SDS011;45812;53.540;9.774;2022-07-10T12:51:53;3.55;;;1.15;;
59950;SDS011;45812;53.540;9.774;2022-07-10T12:56:56;3.45;;;1.15;;
59950;SDS011;45812;53.540;9.774;2022-07-10T12:59:22;5.22;;;1.75;;
59950;SDS011;45812;53.540;9.774;2022-07-10T13:01:49;3.83;;;1.42;;
59950;SDS011;45812;53.540;9.774;2022-07-10T13:04:14;5.47;;;1.45;;
59950;SDS011;45812;53.540;9.774;2022-07-10T13:06:47;10.60;;;1.73;;
59950;SDS011;45812;53.540;9.774;2022-07-10T13:09:25;9.93;;;2.15;;
59950;SDS011;45812;53.540;9.774;2022-07-10T13:11:51;6.93;;;1.95;;
59950;SDS011;45812;53.540;9.774;2022-07-10T13:14:18;5.68;;;1.63;;
59950;SDS011;45812;53.540;9.774;2022-07-10T13:16:44;7.82;;;2.20;;
59950;SDS011;45812;53.540;9.774;2022-07-10T13:19:09;7.53;;;1.83;;
59950;SDS011;45812;53.540;9.774;2022-07-10T13:21:35;4.30;;;1.30;;
59950;SDS011;45812;53.540;9.774;2022-07-10T13:24:01;4.28;;;1.27;;
59950;SDS011;45812;53.540;9.774;2022-07-10T13:26:28;8.93;;;1.63;;
59950;SDS011;45812;53.540;9.774;2022-07-10T13:28:54;5.38;;;1.27;;
59950;SDS011;45812;53.540;9.774;2022-07-10T13:31:20;9.93;;;1.55;;
59950;SDS011;45812;53.540;9.774;2022-07-10T13:33:45;9.45;;;2.08;;
59950;SDS011;45812;53.540;9.774;2022-07-10T13:36:11;10.82;;;1.77;;
59950;SDS011;45812;53.540;9.774;2022-07-10T13:38:36;4.90;;;1.55;;
59950;SDS011;45812;53.540;9.774;2022-07-10T13:41:02;6.28;;;1.10;;
59950;SDS011;45812;53.540;9.774;2022-07-10T13:43:27;7.25;;;1.55;;
59950;SDS011;45812;53.540;9.774;2022-07-10T13:45:58;5.60;;;2.03;;
59950;SDS011;45812;53.540;9.774;2022-07-10T13:48:24;6.35;;;1.45;;
59950;SDS011;45812;53.540;9.774;2022-07-10T13:50:51;5.45;;;1.73;;
59950;SDS011;45812;53.540;9.774;2022-07-10T13:53:16;4.05;;;1.55;;
59950;SDS011;45812;53.540;9.774;2022-07-10T13:55:42;6.50;;;1.45;;
59950;SDS011;45812;53.540;9.774;2022-07-10T13:58:08;4.45;;;1.10;;
59950;SDS011;45812;53.540;9.774;2022-07-10T14:00:35;4.22;;;1.75;;
59950;SDS011;45812;53.540;9.774;2022-07-10T14:03:01;2.30;;;1.20;;
59950;SDS011;45812;53.540;9.774;2022-07-10T14:05:26;4.25;;;1.30;;
59950;SDS011;45812;53.540;9.774;2022-07-10T14:07:52;4.70;;;1.63;;
59950;SDS011;45812;53.540;9.774;2022-07-10T14:10:17;4.22;;;1.15;;
59950;SDS011;45812;53.540;9.774;2022-07-10T14:12:43;9.95;;;1.92;;
59950;SDS011;45812;53.540;9.774;2022-07-10T14:15:08;4.10;;;1.38;;
59950;SDS011;45812;53.540;9.774;2022-07-10T14:17:34;5.03;;;1.30;;
59950;SDS011;45812;53.540;9.774;2022-07-10T14:20:00;4.72;;;1.70;;
59950;SDS011;45812;53.540;9.774;2022-07-10T14:22:25;4.07;;;1.27;;
59950;SDS011;45812;53.540;9.774;2022-07-10T14:24:51;7.05;;;1.70;;
59950;SDS011;45812;53.540;9.774;2022-07-10T14:27:18;3.63;;;1.30;;
59950;SDS011;45812;53.540;9.774;2022-07-10T14:29:44;7.47;;;2.03;;
59950;SDS011;45812;53.540;9.774;2022-07-10T14:32:09;9.38;;;1.75;;
59950;SDS011;45812;53.540;9.774;2022-07-10T14:34:35;8.93;;;1.38;;
59950;SDS011;45812;53.540;9.774;2022-07-10T14:37:01;7.53;;;1.45;;
59950;SDS011;45812;53.540;9.774;2022-07-10T14:39:26;7.55;;;1.50;;
59950;SDS011;45812;53.540;9.774;2022-07-10T14:41:51;4.88;;;1.85;;
59950;SDS011;45812;53.540;9.774;2022-07-10T14:44:17;7.80;;;1.73;;
59950;SDS011;45812;53.540;9.774;2022-07-10T14:46:42;6.18;;;1.40;;
59950;SDS011;45812;53.540;9.774;2022-07-10T14:49:07;8.27;;;1.77;;
59950;SDS011;45812;53.540;9.774;2022-07-10T14:51:33;6.38;;;1.77;;
59950;SDS011;45812;53.540;9.774;2022-07-10T14:54:00;6.68;;;1.70;;
59950;SDS011;45812;53.540;9.774;2022-07-10T14:56:25;5.70;;;1.38;;
59950;SDS011;45812;53.540;9.774;2022-07-10T14:58:51;6.50;;;1.63;;
59950;SDS011;45812;53.540;9.774;2022-07-10T15:01:16;2.50;;;1.40;;
59950;SDS011;45812;53.540;9.774;2022-07-10T15:03:41;3.95;;;1.00;;
59950;SDS011;45812;53.540;9.774;2022-07-10T15:06:07;6.35;;;1.42;;
59950;SDS011;45812;53.540;9.774;2022-07-10T15:08:33;5.90;;;1.70;;
59950;SDS011;45812;53.540;9.774;2022-07-10T15:10:59;7.05;;;1.60;;
59950;SDS011;45812;53.540;9.774;2022-07-10T15:13:25;5.28;;;1.70;;
59950;SDS011;45812;53.540;9.774;2022-07-10T15:15:50;3.63;;;1.25;;
59950;SDS011;45812;53.540;9.774;2022-07-10T15:18:17;7.43;;;2.03;;